F.r. Bigelow — WDB8153 — position and weather

sailwx.info

Track history (hours):
 
Tides and Currents Weather Stations Pressure Air Temp Water Temp Dewpoint Dewpoint Depression Visibility Wind Speed Wind Dir Waves Ship Positions

F.r. Bigelow

Owner: INGRAM BARGE COMPANY, Nashville, TN. More information available from US FCC via Universal Licensing System and Coast Guard Vessel Documentation Center.

Last reported at 2015-Sep-04 19:21 UTC. Time now 2015-Sep-05 10:14 UTC.
Position N 29°56' W 090°08'.

Length 46 m; draft 2.7 m.

Type: Tow > 200 m length. MMSI: 366953890.

Date/timePositionNaut miles runAvg speedWind from/ knotsBaromVisibWave heightAir tempDewpointWater temp
2015-Sep-04 19:21N 29°56' W 090°08'8 0.3
2015-Sep-03 15:31N 29°56' W 089°59'2 2.5
2015-Sep-03 14:33N 29°57' W 090°01'1 0.9
2015-Sep-03 13:33N 29°57' W 090°02'5 5.5
2015-Sep-03 12:34N 29°55' W 090°08'2 0.1
2015-Sep-02 10:32N 29°57' W 090°08'4 3.7
2015-Sep-02 09:33N 29°55' W 090°05'2 1.7
2015-Sep-02 08:32N 29°57' W 090°03'0 0.0
2015-Sep-02 07:33N 29°57' W 090°03'0 0.0
2015-Sep-02 06:33N 29°57' W 090°03'0 0.0
2015-Sep-02 05:33N 29°57' W 090°03'0 0.0
2015-Sep-02 04:30N 29°57' W 090°03'0 0.0
2015-Sep-02 03:29N 29°57' W 090°03'0 0.0
2015-Sep-02 02:33N 29°57' W 090°03'0 0.0
2015-Sep-02 01:33N 29°57' W 090°03'0 0.0
2015-Sep-02 00:28N 29°57' W 090°03'0 0.0
2015-Sep-01 23:30N 29°57' W 090°03'0 0.2
2015-Sep-01 22:30N 29°56' W 090°03'0 0.0
2015-Aug-31 11:12N 29°56' W 090°03'0 0.0
2015-Aug-31 09:27N 29°56' W 090°03'0 0.0
2015-Aug-31 08:33N 29°56' W 090°03'4 3.8
2015-Aug-31 07:25N 29°56' W 090°08'13 0.3
2015-Aug-29 12:17N 29°57' W 090°23'2 3.4
2015-Aug-29 11:32N 29°56' W 090°21'5 4.7
2015-Aug-29 10:29N 29°58' W 090°16'5 4.1
2015-Aug-29 09:15N 29°57' W 090°10'3 2.7
2015-Aug-29 08:12N 29°55' W 090°08'4 5.6
2015-Aug-29 07:33N 29°56' W 090°04'1 0.9
2015-Aug-29 06:33N 29°57' W 090°03'0 0.0
2015-Aug-29 00:31N 29°56' W 090°03'  
2015-Aug-26 05:23N 30°03' W 090°38'  
Track history (hours):
 
Tides and Currents Weather Stations Pressure Air Temp Water Temp Dewpoint Dewpoint Depression Visibility Wind Speed Wind Dir Waves Ship Positions

F.r. Bigelow

Owner: INGRAM BARGE COMPANY, Nashville, TN. More information available from US FCC via Universal Licensing System and Coast Guard Vessel Documentation Center.

Last reported at 2015-Sep-04 19:21 UTC. Time now 2015-Sep-05 10:14 UTC.
Position N 29°56' W 090°08'.

Length 46 m; draft 2.7 m.

Type: Tow > 200 m length. MMSI: 366953890.

Date/timePositionNaut miles runAvg speedWind from/ knotsBaromVisibWave heightAir tempDewpointWater temp
2015-Sep-04 19:21N 29°56' W 090°08'8 0.3
2015-Sep-03 15:31N 29°56' W 089°59'2 2.5
2015-Sep-03 14:33N 29°57' W 090°01'1 0.9
2015-Sep-03 13:33N 29°57' W 090°02'5 5.5
2015-Sep-03 12:34N 29°55' W 090°08'2 0.1
2015-Sep-02 10:32N 29°57' W 090°08'4 3.7
2015-Sep-02 09:33N 29°55' W 090°05'2 1.7
2015-Sep-02 08:32N 29°57' W 090°03'0 0.0
2015-Sep-02 07:33N 29°57' W 090°03'0 0.0
2015-Sep-02 06:33N 29°57' W 090°03'0 0.0
2015-Sep-02 05:33N 29°57' W 090°03'0 0.0
2015-Sep-02 04:30N 29°57' W 090°03'0 0.0
2015-Sep-02 03:29N 29°57' W 090°03'0 0.0
2015-Sep-02 02:33N 29°57' W 090°03'0 0.0
2015-Sep-02 01:33N 29°57' W 090°03'0 0.0
2015-Sep-02 00:28N 29°57' W 090°03'0 0.0
2015-Sep-01 23:30N 29°57' W 090°03'0 0.2
2015-Sep-01 22:30N 29°56' W 090°03'0 0.0
2015-Aug-31 11:12N 29°56' W 090°03'0 0.0
2015-Aug-31 09:27N 29°56' W 090°03'0 0.0
2015-Aug-31 08:33N 29°56' W 090°03'4 3.8
2015-Aug-31 07:25N 29°56' W 090°08'13 0.3
2015-Aug-29 12:17N 29°57' W 090°23'2 3.4
2015-Aug-29 11:32N 29°56' W 090°21'5 4.7
2015-Aug-29 10:29N 29°58' W 090°16'5 4.1
2015-Aug-29 09:15N 29°57' W 090°10'3 2.7
2015-Aug-29 08:12N 29°55' W 090°08'4 5.6
2015-Aug-29 07:33N 29°56' W 090°04'1 0.9
2015-Aug-29 06:33N 29°57' W 090°03'0 0.0
2015-Aug-29 00:31N 29°56' W 090°03'  
2015-Aug-26 05:23N 30°03' W 090°38'  

Dump ship's entire track history